sensor_id;sensor_type;location;lat;lon;timestamp;temperature;humidity
9925;DHT22;5001;51.674;7.868;2023-03-29T00:02:17;5.10;67.50
9925;DHT22;5001;51.674;7.868;2023-03-29T00:04:45;5.10;74.60
9925;DHT22;5001;51.674;7.868;2023-03-29T00:07:13;5.20;66.60
9925;DHT22;5001;51.674;7.868;2023-03-29T00:09:40;5.10;39.90
9925;DHT22;5001;51.674;7.868;2023-03-29T00:12:08;5.10;50.30
9925;DHT22;5001;51.674;7.868;2023-03-29T00:14:36;5.00;52.80
9925;DHT22;5001;51.674;7.868;2023-03-29T00:17:03;5.00;58.70
9925;DHT22;5001;51.674;7.868;2023-03-29T00:19:31;5.00;62.20
9925;DHT22;5001;51.674;7.868;2023-03-29T00:22:04;5.10;76.30
9925;DHT22;5001;51.674;7.868;2023-03-29T00:24:32;5.10;55.70
9925;DHT22;5001;51.674;7.868;2023-03-29T00:26:59;5.00;32.20
9925;DHT22;5001;51.674;7.868;2023-03-29T00:29:26;5.00;38.10
9925;DHT22;5001;51.674;7.868;2023-03-29T00:31:54;5.00;25.80
9925;DHT22;5001;51.674;7.868;2023-03-29T00:34:26;5.00;35.30
9925;DHT22;5001;51.674;7.868;2023-03-29T00:36:57;5.00;13.90
9925;DHT22;5001;51.674;7.868;2023-03-29T00:39:25;5.00;29.40
9925;DHT22;5001;51.674;7.868;2023-03-29T00:41:54;5.10;24.60
9925;DHT22;5001;51.674;7.868;2023-03-29T00:47:45;5.00;24.50
9925;DHT22;5001;51.674;7.868;2023-03-29T00:50:27;5.00;14.20
9925;DHT22;5001;51.674;7.868;2023-03-29T00:53:14;5.00;28.30
9925;DHT22;5001;51.674;7.868;2023-03-29T00:55:47;5.00;20.80
9925;DHT22;5001;51.674;7.868;2023-03-29T00:58:23;5.10;16.90
9925;DHT22;5001;51.674;7.868;2023-03-29T01:01:05;5.00;14.50
9925;DHT22;5001;51.674;7.868;2023-03-29T01:03:39;5.10;14.30
9925;DHT22;5001;51.674;7.868;2023-03-29T01:06:14;5.10;7.90
9925;DHT22;5001;51.674;7.868;2023-03-29T01:08:51;5.00;10.80
9925;DHT22;5001;51.674;7.868;2023-03-29T01:11:26;5.00;12.20
9925;DHT22;5001;51.674;7.868;2023-03-29T01:14:02;5.00;14.80
9925;DHT22;5001;51.674;7.868;2023-03-29T01:16:30;4.90;14.80
9925;DHT22;5001;51.674;7.868;2023-03-29T01:18:59;4.90;12.10
9925;DHT22;5001;51.674;7.868;2023-03-29T01:29:54;5.00;1.00
9925;DHT22;5001;51.674;7.868;2023-03-29T01:32:33;5.00;4.60
9925;DHT22;5001;51.674;7.868;2023-03-29T01:37:39;5.10;1.00
9925;DHT22;5001;51.674;7.868;2023-03-29T01:40:07;5.10;1.00
9925;DHT22;5001;51.674;7.868;2023-03-29T01:53:16;5.00;1.00
9925;DHT22;5001;51.674;7.868;2023-03-29T01:55:53;5.00;1.00
9925;DHT22;5001;51.674;7.868;2023-03-29T01:58:27;5.10;1.00
9925;DHT22;5001;51.674;7.868;2023-03-29T02:00:58;5.10;1.00
9925;DHT22;5001;51.674;7.868;2023-03-29T02:03:28;5.00;1.00
9925;DHT22;5001;51.674;7.868;2023-03-29T02:05:57;5.20;1.00
9925;DHT22;5001;51.674;7.868;2023-03-29T02:08:28;5.20;1.00
9925;DHT22;5001;51.674;7.868;2023-03-29T02:10:56;5.20;1.00
9925;DHT22;5001;51.674;7.868;2023-03-29T02:13:23;5.20;1.00
9925;DHT22;5001;51.674;7.868;2023-03-29T02:15:50;5.20;1.00
9925;DHT22;5001;51.674;7.868;2023-03-29T02:18:18;5.30;1.00
9925;DHT22;5001;51.674;7.868;2023-03-29T02:20:47;5.30;1.00
9925;DHT22;5001;51.674;7.868;2023-03-29T02:23:46;5.30;1.00
9925;DHT22;5001;51.674;7.868;2023-03-29T02:26:14;5.30;1.00
9925;DHT22;5001;51.674;7.868;2023-03-29T02:28:45;5.30;1.00
9925;DHT22;5001;51.674;7.868;2023-03-29T02:36:37;5.40;1.00
9925;DHT22;5001;51.674;7.868;2023-03-29T02:39:09;5.30;1.00
9925;DHT22;5001;51.674;7.868;2023-03-29T02:41:42;5.30;1.00
9925;DHT22;5001;51.674;7.868;2023-03-29T02:44:13;5.30;1.00
9925;DHT22;5001;51.674;7.868;2023-03-29T02:46:41;5.30;1.00
9925;DHT22;5001;51.674;7.868;2023-03-29T02:49:11;5.30;1.00
9925;DHT22;5001;51.674;7.868;2023-03-29T02:51:38;5.30;1.00
9925;DHT22;5001;51.674;7.868;2023-03-29T02:54:06;5.30;1.00
9925;DHT22;5001;51.674;7.868;2023-03-29T02:56:43;5.30;1.00
9925;DHT22;5001;51.674;7.868;2023-03-29T02:59:11;5.30;1.00
9925;DHT22;5001;51.674;7.868;2023-03-29T03:01:40;5.40;1.00
9925;DHT22;5001;51.674;7.868;2023-03-29T03:04:11;5.40;1.00
9925;DHT22;5001;51.674;7.868;2023-03-29T03:06:39;5.40;1.00
9925;DHT22;5001;51.674;7.868;2023-03-29T03:09:09;5.40;1.00
9925;DHT22;5001;51.674;7.868;2023-03-29T03:11:39;5.40;1.00
9925;DHT22;5001;51.674;7.868;2023-03-29T03:14:06;5.40;1.00
9925;DHT22;5001;51.674;7.868;2023-03-29T03:16:34;5.40;1.00
9925;DHT22;5001;51.674;7.868;2023-03-29T03:19:01;5.40;1.00
9925;DHT22;5001;51.674;7.868;2023-03-29T03:21:28;5.50;1.00
9925;DHT22;5001;51.674;7.868;2023-03-29T03:23:55;5.50;1.00
9925;DHT22;5001;51.674;7.868;2023-03-29T03:26:23;5.50;1.00
9925;DHT22;5001;51.674;7.868;2023-03-29T03:28:56;5.50;1.00
9925;DHT22;5001;51.674;7.868;2023-03-29T03:31:49;5.50;1.00
9925;DHT22;5001;51.674;7.868;2023-03-29T03:34:48;5.50;1.00
9925;DHT22;5001;51.674;7.868;2023-03-29T03:37:16;5.50;1.00
9925;DHT22;5001;51.674;7.868;2023-03-29T03:39:43;5.60;1.00
9925;DHT22;5001;51.674;7.868;2023-03-29T03:42:11;5.60;1.00
9925;DHT22;5001;51.674;7.868;2023-03-29T03:44:41;5.60;1.00
9925;DHT22;5001;51.674;7.868;2023-03-29T03:47:35;5.70;1.00
9925;DHT22;5001;51.674;7.868;2023-03-29T03:50:18;5.80;1.00
9925;DHT22;5001;51.674;7.868;2023-03-29T03:52:45;5.90;1.00
9925;DHT22;5001;51.674;7.868;2023-03-29T03:55:12;5.90;1.00
9925;DHT22;5001;51.674;7.868;2023-03-29T03:57:50;6.00;1.00
9925;DHT22;5001;51.674;7.868;2023-03-29T04:00:18;6.10;1.00
9925;DHT22;5001;51.674;7.868;2023-03-29T04:02:57;6.10;1.00
9925;DHT22;5001;51.674;7.868;2023-03-29T04:05:24;6.10;1.00
9925;DHT22;5001;51.674;7.868;2023-03-29T04:07:52;6.10;1.00
9925;DHT22;5001;51.674;7.868;2023-03-29T04:10:34;6.10;1.00
9925;DHT22;5001;51.674;7.868;2023-03-29T04:13:11;6.10;1.00
9925;DHT22;5001;51.674;7.868;2023-03-29T04:15:59;6.10;1.00
9925;DHT22;5001;51.674;7.868;2023-03-29T04:18:28;6.10;1.00
9925;DHT22;5001;51.674;7.868;2023-03-29T04:20:57;6.20;1.00
9925;DHT22;5001;51.674;7.868;2023-03-29T04:23:26;6.20;1.00
9925;DHT22;5001;51.674;7.868;2023-03-29T04:25:54;6.20;1.00
9925;DHT22;5001;51.674;7.868;2023-03-29T04:28:43;6.20;1.00
9925;DHT22;5001;51.674;7.868;2023-03-29T04:31:18;6.20;1.00
9925;DHT22;5001;51.674;7.868;2023-03-29T04:34:23;6.20;1.00
9925;DHT22;5001;51.674;7.868;2023-03-29T04:36:53;6.20;1.00
9925;DHT22;5001;51.674;7.868;2023-03-29T04:39:22;6.30;1.00
9925;DHT22;5001;51.674;7.868;2023-03-29T04:41:58;6.30;1.00
9925;DHT22;5001;51.674;7.868;2023-03-29T04:44:27;6.30;1.00
9925;DHT22;5001;51.674;7.868;2023-03-29T04:46:57;6.30;1.00
9925;DHT22;5001;51.674;7.868;2023-03-29T04:49:42;6.40;1.00
9925;DHT22;5001;51.674;7.868;2023-03-29T04:52:17;6.40;1.00
9925;DHT22;5001;51.674;7.868;2023-03-29T04:54:44;6.40;1.00
9925;DHT22;5001;51.674;7.868;2023-03-29T04:57:22;6.50;1.00
9925;DHT22;5001;51.674;7.868;2023-03-29T05:00:00;6.50;1.00
9925;DHT22;5001;51.674;7.868;2023-03-29T05:02:53;6.50;1.00
9925;DHT22;5001;51.674;7.868;2023-03-29T05:05:20;6.50;1.00
9925;DHT22;5001;51.674;7.868;2023-03-29T05:07:49;6.50;1.00
9925;DHT22;5001;51.674;7.868;2023-03-29T05:10:21;6.60;1.00
9925;DHT22;5001;51.674;7.868;2023-03-29T05:12:49;6.60;1.00
9925;DHT22;5001;51.674;7.868;2023-03-29T05:15:21;6.60;1.00
9925;DHT22;5001;51.674;7.868;2023-03-29T05:17:48;6.60;1.00
9925;DHT22;5001;51.674;7.868;2023-03-29T05:20:16;6.60;1.00
9925;DHT22;5001;51.674;7.868;2023-03-29T05:22:45;6.70;1.00
9925;DHT22;5001;51.674;7.868;2023-03-29T05:25:25;6.70;1.00
9925;DHT22;5001;51.674;7.868;2023-03-29T05:27:52;6.70;1.00
9925;DHT22;5001;51.674;7.868;2023-03-29T05:30:19;6.70;1.00
9925;DHT22;5001;51.674;7.868;2023-03-29T05:32:56;6.80;1.00
9925;DHT22;5001;51.674;7.868;2023-03-29T05:35:24;6.80;1.00
9925;DHT22;5001;51.674;7.868;2023-03-29T05:37:53;6.80;1.00
9925;DHT22;5001;51.674;7.868;2023-03-29T05:40:21;6.80;1.00
9925;DHT22;5001;51.674;7.868;2023-03-29T05:43:11;6.80;1.00
9925;DHT22;5001;51.674;7.868;2023-03-29T05:45:38;6.80;1.00
9925;DHT22;5001;51.674;7.868;2023-03-29T05:48:05;6.90;1.00
9925;DHT22;5001;51.674;7.868;2023-03-29T05:50:32;6.90;1.00
9925;DHT22;5001;51.674;7.868;2023-03-29T05:53:00;6.90;1.00
9925;DHT22;5001;51.674;7.868;2023-03-29T05:55:27;6.90;1.00
9925;DHT22;5001;51.674;7.868;2023-03-29T05:57:54;6.90;1.00
9925;DHT22;5001;51.674;7.868;2023-03-29T06:00:25;7.00;1.00
9925;DHT22;5001;51.674;7.868;2023-03-29T06:03:06;7.00;1.00
9925;DHT22;5001;51.674;7.868;2023-03-29T06:05:48;7.00;1.00
9925;DHT22;5001;51.674;7.868;2023-03-29T06:08:16;7.00;1.00
9925;DHT22;5001;51.674;7.868;2023-03-29T06:11:15;7.00;1.00
9925;DHT22;5001;51.674;7.868;2023-03-29T06:14:02;7.00;1.00
9925;DHT22;5001;51.674;7.868;2023-03-29T06:16:30;7.00;1.00
9925;DHT22;5001;51.674;7.868;2023-03-29T06:18:58;7.00;1.00
9925;DHT22;5001;51.674;7.868;2023-03-29T06:21:26;7.00;1.00
9925;DHT22;5001;51.674;7.868;2023-03-29T06:23:54;7.00;1.00
9925;DHT22;5001;51.674;7.868;2023-03-29T06:26:22;7.10;1.00
9925;DHT22;5001;51.674;7.868;2023-03-29T06:28:49;7.10;1.00
9925;DHT22;5001;51.674;7.868;2023-03-29T06:31:18;7.20;1.00
9925;DHT22;5001;51.674;7.868;2023-03-29T06:33:49;7.20;1.00
9925;DHT22;5001;51.674;7.868;2023-03-29T06:36:31;7.20;1.00
9925;DHT22;5001;51.674;7.868;2023-03-29T06:39:00;7.30;1.00
9925;DHT22;5001;51.674;7.868;2023-03-29T06:41:52;7.30;1.00
9925;DHT22;5001;51.674;7.868;2023-03-29T06:44:37;7.30;1.00
9925;DHT22;5001;51.674;7.868;2023-03-29T06:47:11;7.40;1.00
9925;DHT22;5001;51.674;7.868;2023-03-29T06:49:38;7.40;1.00
9925;DHT22;5001;51.674;7.868;2023-03-29T06:52:28;7.50;1.00
9925;DHT22;5001;51.674;7.868;2023-03-29T06:54:55;7.70;1.00
9925;DHT22;5001;51.674;7.868;2023-03-29T06:57:23;7.70;1.00
9925;DHT22;5001;51.674;7.868;2023-03-29T06:59:51;7.50;1.00
9925;DHT22;5001;51.674;7.868;2023-03-29T07:02:22;7.50;1.00
9925;DHT22;5001;51.674;7.868;2023-03-29T07:05:01;7.60;1.00
9925;DHT22;5001;51.674;7.868;2023-03-29T07:07:38;7.60;1.00
9925;DHT22;5001;51.674;7.868;2023-03-29T07:11:03;7.70;1.00
9925;DHT22;5001;51.674;7.868;2023-03-29T07:13:51;7.90;1.00
9925;DHT22;5001;51.674;7.868;2023-03-29T07:16:19;7.90;1.00
9925;DHT22;5001;51.674;7.868;2023-03-29T07:18:46;7.80;1.00
9925;DHT22;5001;51.674;7.868;2023-03-29T07:21:25;8.00;1.00
9925;DHT22;5001;51.674;7.868;2023-03-29T07:23:56;8.00;1.00
9925;DHT22;5001;51.674;7.868;2023-03-29T07:26:26;8.20;1.00
9925;DHT22;5001;51.674;7.868;2023-03-29T07:28:57;8.20;1.00
9925;DHT22;5001;51.674;7.868;2023-03-29T07:31:24;8.40;1.00
9925;DHT22;5001;51.674;7.868;2023-03-29T07:33:58;8.50;1.00
9925;DHT22;5001;51.674;7.868;2023-03-29T07:36:26;8.50;1.00
9925;DHT22;5001;51.674;7.868;2023-03-29T07:38:54;8.60;1.00
9925;DHT22;5001;51.674;7.868;2023-03-29T07:41:25;8.60;1.00
9925;DHT22;5001;51.674;7.868;2023-03-29T07:44:02;8.70;1.00
9925;DHT22;5001;51.674;7.868;2023-03-29T07:46:35;8.80;1.00
9925;DHT22;5001;51.674;7.868;2023-03-29T07:49:03;8.80;1.00
9925;DHT22;5001;51.674;7.868;2023-03-29T07:51:30;9.00;1.00
9925;DHT22;5001;51.674;7.868;2023-03-29T07:54:05;9.20;1.00
9925;DHT22;5001;51.674;7.868;2023-03-29T07:56:51;9.30;1.00
9925;DHT22;5001;51.674;7.868;2023-03-29T07:59:30;9.50;1.00
9925;DHT22;5001;51.674;7.868;2023-03-29T08:02:24;9.70;1.00
9925;DHT22;5001;51.674;7.868;2023-03-29T08:04:54;9.80;1.00
9925;DHT22;5001;51.674;7.868;2023-03-29T08:07:45;9.70;1.00
9925;DHT22;5001;51.674;7.868;2023-03-29T08:10:30;9.70;1.00
9925;DHT22;5001;51.674;7.868;2023-03-29T08:13:20;9.60;1.00
9925;DHT22;5001;51.674;7.868;2023-03-29T08:16:07;9.60;1.00
9925;DHT22;5001;51.674;7.868;2023-03-29T08:18:39;9.60;1.00
9925;DHT22;5001;51.674;7.868;2023-03-29T08:21:07;9.80;1.00
9925;DHT22;5001;51.674;7.868;2023-03-29T08:23:34;9.90;1.00
9925;DHT22;5001;51.674;7.868;2023-03-29T08:26:09;10.10;1.00
9925;DHT22;5001;51.674;7.868;2023-03-29T08:28:38;10.20;1.00
9925;DHT22;5001;51.674;7.868;2023-03-29T08:31:07;10.00;1.00
9925;DHT22;5001;51.674;7.868;2023-03-29T08:33:38;10.20;1.00
9925;DHT22;5001;51.674;7.868;2023-03-29T08:36:25;10.10;1.00
9925;DHT22;5001;51.674;7.868;2023-03-29T08:38:55;10.30;1.00
9925;DHT22;5001;51.674;7.868;2023-03-29T08:44:08;10.80;1.00
9925;DHT22;5001;51.674;7.868;2023-03-29T08:47:18;10.80;1.00
9925;DHT22;5001;51.674;7.868;2023-03-29T08:49:50;11.30;1.00
9925;DHT22;5001;51.674;7.868;2023-03-29T08:52:45;11.20;1.00
9925;DHT22;5001;51.674;7.868;2023-03-29T08:55:31;11.20;1.00
9925;DHT22;5001;51.674;7.868;2023-03-29T08:58:21;11.30;1.00
9925;DHT22;5001;51.674;7.868;2023-03-29T09:00:54;11.30;1.00
9925;DHT22;5001;51.674;7.868;2023-03-29T09:03:34;11.30;1.00
9925;DHT22;5001;51.674;7.868;2023-03-29T09:06:11;11.50;1.00
9925;DHT22;5001;51.674;7.868;2023-03-29T09:08:46;11.10;1.00
9925;DHT22;5001;51.674;7.868;2023-03-29T09:22:53;11.90;1.00
9925;DHT22;5001;51.674;7.868;2023-03-29T09:29:15;11.70;1.00
9925;DHT22;5001;51.674;7.868;2023-03-29T09:31:43;11.70;1.00
9925;DHT22;5001;51.674;7.868;2023-03-29T09:37:07;11.60;1.00
9925;DHT22;5001;51.674;7.868;2023-03-29T09:39:39;11.60;1.00
9925;DHT22;5001;51.674;7.868;2023-03-29T09:42:12;11.50;1.00
9925;DHT22;5001;51.674;7.868;2023-03-29T09:44:46;11.60;1.00
9925;DHT22;5001;51.674;7.868;2023-03-29T09:47:41;11.90;1.00
9925;DHT22;5001;51.674;7.868;2023-03-29T09:50:36;11.70;1.00
9925;DHT22;5001;51.674;7.868;2023-03-29T09:53:03;11.80;1.00
9925;DHT22;5001;51.674;7.868;2023-03-29T09:55:35;11.80;1.00
9925;DHT22;5001;51.674;7.868;2023-03-29T09:58:16;11.90;1.00
9925;DHT22;5001;51.674;7.868;2023-03-29T10:00:49;11.70;1.00
9925;DHT22;5001;51.674;7.868;2023-03-29T10:03:20;11.80;1.00
9925;DHT22;5001;51.674;7.868;2023-03-29T10:06:09;11.50;1.00
9925;DHT22;5001;51.674;7.868;2023-03-29T10:08:48;11.40;1.00
9925;DHT22;5001;51.674;7.868;2023-03-29T10:11:22;11.10;1.00
9925;DHT22;5001;51.674;7.868;2023-03-29T10:13:53;10.90;1.00
9925;DHT22;5001;51.674;7.868;2023-03-29T10:16:27;10.80;1.00
9925;DHT22;5001;51.674;7.868;2023-03-29T10:18:55;10.80;1.00
9925;DHT22;5001;51.674;7.868;2023-03-29T10:21:22;10.90;1.00
9925;DHT22;5001;51.674;7.868;2023-03-29T10:23:56;10.70;1.00
9925;DHT22;5001;51.674;7.868;2023-03-29T10:26:30;10.80;1.00
9925;DHT22;5001;51.674;7.868;2023-03-29T10:28:58;10.70;1.00
9925;DHT22;5001;51.674;7.868;2023-03-29T10:31:29;11.00;1.00
9925;DHT22;5001;51.674;7.868;2023-03-29T10:34:05;11.50;1.00
9925;DHT22;5001;51.674;7.868;2023-03-29T10:36:33;12.30;1.00
9925;DHT22;5001;51.674;7.868;2023-03-29T10:39:02;14.20;1.00
9925;DHT22;5001;51.674;7.868;2023-03-29T10:41:33;14.50;1.00
9925;DHT22;5001;51.674;7.868;2023-03-29T10:44:01;13.70;1.00
9925;DHT22;5001;51.674;7.868;2023-03-29T10:46:30;13.50;1.00
9925;DHT22;5001;51.674;7.868;2023-03-29T10:49:02;12.80;1.00
9925;DHT22;5001;51.674;7.868;2023-03-29T10:51:35;12.90;1.00
9925;DHT22;5001;51.674;7.868;2023-03-29T10:54:03;12.80;1.00
9925;DHT22;5001;51.674;7.868;2023-03-29T10:56:48;12.40;1.00
9925;DHT22;5001;51.674;7.868;2023-03-29T10:59:42;12.90;1.00
9925;DHT22;5001;51.674;7.868;2023-03-29T11:05:00;13.20;1.00
9925;DHT22;5001;51.674;7.868;2023-03-29T11:13:08;12.20;1.00
9925;DHT22;5001;51.674;7.868;2023-03-29T11:24:26;12.20;1.00
9925;DHT22;5001;51.674;7.868;2023-03-29T11:29:33;12.70;1.00
9925;DHT22;5001;51.674;7.868;2023-03-29T11:40:56;12.90;1.00
9925;DHT22;5001;51.674;7.868;2023-03-29T11:43:36;12.80;1.00
9925;DHT22;5001;51.674;7.868;2023-03-29T11:46:22;12.80;1.00
9925;DHT22;5001;51.674;7.868;2023-03-29T11:49:11;12.80;1.00
9925;DHT22;5001;51.674;7.868;2023-03-29T11:51:47;13.00;1.00
9925;DHT22;5001;51.674;7.868;2023-03-29T11:54:41;13.20;1.00
9925;DHT22;5001;51.674;7.868;2023-03-29T11:57:29;13.30;1.00
9925;DHT22;5001;51.674;7.868;2023-03-29T12:02:35;13.70;1.00
9925;DHT22;5001;51.674;7.868;2023-03-29T12:05:21;14.20;1.00
9925;DHT22;5001;51.674;7.868;2023-03-29T12:08:14;14.50;1.00
9925;DHT22;5001;51.674;7.868;2023-03-29T12:10:55;14.50;1.00
9925;DHT22;5001;51.674;7.868;2023-03-29T12:19:04;15.00;1.00
9925;DHT22;5001;51.674;7.868;2023-03-29T12:21:34;16.30;1.00
9925;DHT22;5001;51.674;7.868;2023-03-29T12:24:02;16.50;1.00
9925;DHT22;5001;51.674;7.868;2023-03-29T12:26:58;15.60;1.00
9925;DHT22;5001;51.674;7.868;2023-03-29T12:41:20;15.80;1.00
9925;DHT22;5001;51.674;7.868;2023-03-29T12:43:59;16.40;1.00
9925;DHT22;5001;51.674;7.868;2023-03-29T12:46:56;16.50;1.00
9925;DHT22;5001;51.674;7.868;2023-03-29T12:49:33;15.90;1.00
9925;DHT22;5001;51.674;7.868;2023-03-29T12:52:05;16.40;1.00
9925;DHT22;5001;51.674;7.868;2023-03-29T12:54:34;16.30;1.00
9925;DHT22;5001;51.674;7.868;2023-03-29T12:57:19;16.40;1.00
9925;DHT22;5001;51.674;7.868;2023-03-29T12:59:48;15.70;1.00
9925;DHT22;5001;51.674;7.868;2023-03-29T13:09:49;15.10;1.00
9925;DHT22;5001;51.674;7.868;2023-03-29T13:15:00;15.10;1.00
9925;DHT22;5001;51.674;7.868;2023-03-29T13:18:09;14.90;1.00
9925;DHT22;5001;51.674;7.868;2023-03-29T13:26:23;15.40;1.00
9925;DHT22;5001;51.674;7.868;2023-03-29T13:34:47;15.50;1.00
9925;DHT22;5001;51.674;7.868;2023-03-29T13:42:59;15.10;1.00
9925;DHT22;5001;51.674;7.868;2023-03-29T13:45:31;14.90;1.00
9925;DHT22;5001;51.674;7.868;2023-03-29T13:48:25;14.90;1.00
9925;DHT22;5001;51.674;7.868;2023-03-29T13:51:17;14.60;1.00
9925;DHT22;5001;51.674;7.868;2023-03-29T13:53:57;14.50;1.00
9925;DHT22;5001;51.674;7.868;2023-03-29T14:05:22;14.50;1.00
9925;DHT22;5001;51.674;7.868;2023-03-29T14:07:51;14.50;1.00
9925;DHT22;5001;51.674;7.868;2023-03-29T14:10:26;14.50;1.00
9925;DHT22;5001;51.674;7.868;2023-03-29T14:12:53;14.50;1.00
9925;DHT22;5001;51.674;7.868;2023-03-29T14:15:26;14.50;1.00
9925;DHT22;5001;51.674;7.868;2023-03-29T14:17:55;14.60;1.00
9925;DHT22;5001;51.674;7.868;2023-03-29T14:20:26;14.50;1.00
9925;DHT22;5001;51.674;7.868;2023-03-29T14:22:54;14.60;1.00
9925;DHT22;5001;51.674;7.868;2023-03-29T14:25:21;14.80;1.00
9925;DHT22;5001;51.674;7.868;2023-03-29T14:27:50;14.60;1.00
9925;DHT22;5001;51.674;7.868;2023-03-29T14:30:19;14.60;1.00
9925;DHT22;5001;51.674;7.868;2023-03-29T14:32:48;14.80;1.00
9925;DHT22;5001;51.674;7.868;2023-03-29T14:35:16;14.90;1.00
9925;DHT22;5001;51.674;7.868;2023-03-29T14:37:45;15.10;1.00
9925;DHT22;5001;51.674;7.868;2023-03-29T14:40:18;15.60;1.00
9925;DHT22;5001;51.674;7.868;2023-03-29T14:42:46;15.50;1.00
9925;DHT22;5001;51.674;7.868;2023-03-29T14:45:16;15.80;1.00
9925;DHT22;5001;51.674;7.868;2023-03-29T14:47:44;15.80;1.00
9925;DHT22;5001;51.674;7.868;2023-03-29T14:50:32;15.40;1.00
9925;DHT22;5001;51.674;7.868;2023-03-29T14:53:00;15.40;1.00
9925;DHT22;5001;51.674;7.868;2023-03-29T14:55:27;15.40;1.00
9925;DHT22;5001;51.674;7.868;2023-03-29T14:57:57;15.30;1.00
9925;DHT22;5001;51.674;7.868;2023-03-29T15:00:29;15.50;1.00
9925;DHT22;5001;51.674;7.868;2023-03-29T15:02:59;14.90;1.00
9925;DHT22;5001;51.674;7.868;2023-03-29T15:05:31;15.00;1.00
9925;DHT22;5001;51.674;7.868;2023-03-29T15:08:00;14.90;1.00
9925;DHT22;5001;51.674;7.868;2023-03-29T15:10:30;14.90;1.00
9925;DHT22;5001;51.674;7.868;2023-03-29T15:13:01;15.10;1.00
9925;DHT22;5001;51.674;7.868;2023-03-29T15:15:35;15.10;1.00
9925;DHT22;5001;51.674;7.868;2023-03-29T15:18:05;15.30;1.00
9925;DHT22;5001;51.674;7.868;2023-03-29T15:20:36;15.20;1.00
9925;DHT22;5001;51.674;7.868;2023-03-29T15:23:19;15.20;1.00
9925;DHT22;5001;51.674;7.868;2023-03-29T15:26:05;15.30;1.00
9925;DHT22;5001;51.674;7.868;2023-03-29T15:28:34;15.30;1.00
9925;DHT22;5001;51.674;7.868;2023-03-29T15:31:12;15.40;1.00
9925;DHT22;5001;51.674;7.868;2023-03-29T15:33:40;15.40;1.00
9925;DHT22;5001;51.674;7.868;2023-03-29T15:36:10;15.30;1.00
9925;DHT22;5001;51.674;7.868;2023-03-29T15:38:38;15.20;1.00
9925;DHT22;5001;51.674;7.868;2023-03-29T15:41:12;15.10;1.00
9925;DHT22;5001;51.674;7.868;2023-03-29T15:43:40;15.00;1.00
9925;DHT22;5001;51.674;7.868;2023-03-29T15:46:10;15.00;1.00
9925;DHT22;5001;51.674;7.868;2023-03-29T15:48:37;15.10;1.00
9925;DHT22;5001;51.674;7.868;2023-03-29T15:51:05;15.10;1.00
9925;DHT22;5001;51.674;7.868;2023-03-29T15:53:34;15.30;1.00
9925;DHT22;5001;51.674;7.868;2023-03-29T15:56:01;15.30;1.00
9925;DHT22;5001;51.674;7.868;2023-03-29T15:58:32;15.30;1.00
9925;DHT22;5001;51.674;7.868;2023-03-29T16:01:15;15.40;1.00
9925;DHT22;5001;51.674;7.868;2023-03-29T16:03:49;15.20;1.00
9925;DHT22;5001;51.674;7.868;2023-03-29T16:06:16;15.20;1.00
9925;DHT22;5001;51.674;7.868;2023-03-29T16:08:44;15.30;1.00
9925;DHT22;5001;51.674;7.868;2023-03-29T16:11:11;15.10;1.00
9925;DHT22;5001;51.674;7.868;2023-03-29T16:13:38;14.90;1.00
9925;DHT22;5001;51.674;7.868;2023-03-29T16:16:07;15.00;1.00
9925;DHT22;5001;51.674;7.868;2023-03-29T16:18:35;15.00;1.00
9925;DHT22;5001;51.674;7.868;2023-03-29T16:21:03;14.90;1.00
9925;DHT22;5001;51.674;7.868;2023-03-29T16:23:30;14.90;1.00
9925;DHT22;5001;51.674;7.868;2023-03-29T16:25:57;14.90;1.00
9925;DHT22;5001;51.674;7.868;2023-03-29T16:28:25;14.80;1.00
9925;DHT22;5001;51.674;7.868;2023-03-29T16:30:52;14.80;1.00
9925;DHT22;5001;51.674;7.868;2023-03-29T16:33:19;14.70;1.00
9925;DHT22;5001;51.674;7.868;2023-03-29T16:35:46;14.80;1.00
9925;DHT22;5001;51.674;7.868;2023-03-29T16:38:13;14.70;1.00
9925;DHT22;5001;51.674;7.868;2023-03-29T16:40:40;14.70;1.00
9925;DHT22;5001;51.674;7.868;2023-03-29T16:43:13;14.60;1.00
9925;DHT22;5001;51.674;7.868;2023-03-29T16:45:41;14.60;1.00
9925;DHT22;5001;51.674;7.868;2023-03-29T16:48:16;14.50;1.00
9925;DHT22;5001;51.674;7.868;2023-03-29T16:50:46;14.50;1.00
9925;DHT22;5001;51.674;7.868;2023-03-29T16:53:17;14.40;1.00
9925;DHT22;5001;51.674;7.868;2023-03-29T16:55:46;14.40;1.00
9925;DHT22;5001;51.674;7.868;2023-03-29T16:58:13;14.30;1.00
9925;DHT22;5001;51.674;7.868;2023-03-29T17:00:41;14.30;1.00
9925;DHT22;5001;51.674;7.868;2023-03-29T17:03:12;14.20;1.00
9925;DHT22;5001;51.674;7.868;2023-03-29T17:05:39;14.20;1.00
9925;DHT22;5001;51.674;7.868;2023-03-29T17:08:07;14.10;1.00
9925;DHT22;5001;51.674;7.868;2023-03-29T17:10:38;14.10;1.00
9925;DHT22;5001;51.674;7.868;2023-03-29T17:13:06;14.10;1.00
9925;DHT22;5001;51.674;7.868;2023-03-29T17:15:34;14.00;1.00
9925;DHT22;5001;51.674;7.868;2023-03-29T17:18:06;14.00;1.00
9925;DHT22;5001;51.674;7.868;2023-03-29T17:20:36;14.00;1.00
9925;DHT22;5001;51.674;7.868;2023-03-29T17:23:04;14.10;1.00
9925;DHT22;5001;51.674;7.868;2023-03-29T17:25:31;14.00;1.00
9925;DHT22;5001;51.674;7.868;2023-03-29T17:27:58;14.00;1.00
9925;DHT22;5001;51.674;7.868;2023-03-29T17:30:26;14.00;1.00
9925;DHT22;5001;51.674;7.868;2023-03-29T17:32:53;13.90;1.00
9925;DHT22;5001;51.674;7.868;2023-03-29T17:35:21;13.90;1.00
9925;DHT22;5001;51.674;7.868;2023-03-29T17:37:50;13.90;1.00
9925;DHT22;5001;51.674;7.868;2023-03-29T17:40:19;13.90;1.00
9925;DHT22;5001;51.674;7.868;2023-03-29T17:42:48;13.80;1.00
9925;DHT22;5001;51.674;7.868;2023-03-29T17:45:16;13.80;1.00
9925;DHT22;5001;51.674;7.868;2023-03-29T17:47:43;13.80;1.00
9925;DHT22;5001;51.674;7.868;2023-03-29T17:50:11;13.70;1.00
9925;DHT22;5001;51.674;7.868;2023-03-29T17:52:39;13.90;1.00
9925;DHT22;5001;51.674;7.868;2023-03-29T17:55:08;14.00;1.00
9925;DHT22;5001;51.674;7.868;2023-03-29T17:57:37;14.00;1.00
9925;DHT22;5001;51.674;7.868;2023-03-29T18:00:07;14.00;1.00
9925;DHT22;5001;51.674;7.868;2023-03-29T18:02:35;13.90;1.00
9925;DHT22;5001;51.674;7.868;2023-03-29T18:05:02;13.90;1.00
9925;DHT22;5001;51.674;7.868;2023-03-29T18:07:30;13.90;1.00
9925;DHT22;5001;51.674;7.868;2023-03-29T18:09:57;13.90;1.00
9925;DHT22;5001;51.674;7.868;2023-03-29T18:12:26;13.90;1.00
9925;DHT22;5001;51.674;7.868;2023-03-29T18:14:54;13.90;1.00
9925;DHT22;5001;51.674;7.868;2023-03-29T18:17:25;13.90;1.00
9925;DHT22;5001;51.674;7.868;2023-03-29T18:19:54;13.90;1.00
9925;DHT22;5001;51.674;7.868;2023-03-29T18:22:21;13.80;1.00
9925;DHT22;5001;51.674;7.868;2023-03-29T18:24:49;13.90;1.00
9925;DHT22;5001;51.674;7.868;2023-03-29T18:27:17;13.90;1.00
9925;DHT22;5001;51.674;7.868;2023-03-29T18:29:44;13.90;1.00
9925;DHT22;5001;51.674;7.868;2023-03-29T18:32:11;13.90;1.00
9925;DHT22;5001;51.674;7.868;2023-03-29T18:34:39;13.90;1.00
9925;DHT22;5001;51.674;7.868;2023-03-29T18:37:06;13.80;1.00
9925;DHT22;5001;51.674;7.868;2023-03-29T18:39:40;13.80;1.00
9925;DHT22;5001;51.674;7.868;2023-03-29T18:42:08;13.70;1.00
9925;DHT22;5001;51.674;7.868;2023-03-29T18:44:38;13.70;1.00
9925;DHT22;5001;51.674;7.868;2023-03-29T18:47:06;13.60;1.00
9925;DHT22;5001;51.674;7.868;2023-03-29T18:49:33;13.60;1.00
9925;DHT22;5001;51.674;7.868;2023-03-29T18:52:00;13.60;1.00
9925;DHT22;5001;51.674;7.868;2023-03-29T18:54:27;13.60;1.00
9925;DHT22;5001;51.674;7.868;2023-03-29T18:56:54;13.60;1.00
9925;DHT22;5001;51.674;7.868;2023-03-29T18:59:25;13.50;1.00
9925;DHT22;5001;51.674;7.868;2023-03-29T19:01:52;13.50;1.00
9925;DHT22;5001;51.674;7.868;2023-03-29T19:04:19;13.40;1.00
9925;DHT22;5001;51.674;7.868;2023-03-29T19:06:46;13.40;1.00
9925;DHT22;5001;51.674;7.868;2023-03-29T19:09:13;13.30;1.00
9925;DHT22;5001;51.674;7.868;2023-03-29T19:11:40;13.30;1.00
9925;DHT22;5001;51.674;7.868;2023-03-29T19:14:08;13.30;1.00
9925;DHT22;5001;51.674;7.868;2023-03-29T19:16:36;13.30;1.00
9925;DHT22;5001;51.674;7.868;2023-03-29T19:19:07;13.30;1.00